Terminal Aerodrome Forecast
Issued by NWS

Home | Current Version | Previous Version | Text Only | Print | Product List | Glossary On
Versions: 1 2 3 4 5 6 7 8 9 10 11 12 13 14 15 16 17
104
FTAK31 PAJN 301417 AAA
TAFASI
TAF AMD
PASI 301417Z 3014/3112 00000KT P6SM VCSH SCT004 BKN025 OVC040
      TEMPO 3014/3017 4SM -DZ BR OVC004
     FM301700 28005KT P6SM SCT006 BKN015 OVC025
     FM302100 28008KT P6SM SCT007 SCT015 OVC025
     FM310600 31004KT P6SM BKN007 OVC015
     FM310900 31004KT 4SM -DZ BR BKN007 OVC015=

USA.gov is the U.S. government's official web portal to all federal, state and local government web resources and services.